עמוד ראשי
METAR-TAF:

METAR-TAF

שדות תעופה :

New Stuyahok, אלסקה, ארצות הברית

קו רוחב: 59-27-06N, קו אורך: 157-22-23W, גובה: 111מטר

תצפית מזג אוויר נוכחית

הדו"ח נערך לפני 30דקות, בשעה 11:56 UTC
רוח 8קשר מכיוון מערב/צפון-מערב
טמפרטורת 12 צלסיוס
לחות 76%
לחץ 1014 hPa
ראות: 16.1קילומטר
שמיים נקיים

METAR: PANW 221156Z AUTO 30008KT 10SM CLR 12/08 A2993 RMK AO2 SLP139 T01170078 10172 20117 53001

זמן: 04:26 (12:26 UTC)


TAF: חסר

תצפיות ותחזיות מזג אוויר לגבי יותר מ- 4,000 שדות תעופה ברחבי העולם. דוחות METAR ו- TAF.

התחנות הזמינות מסומנות בנקודות צהובות ואדומות על גבי המפה.

העבר את העכבר לנקודה הצבעונית על מנת לראות את שם התחנה.

לאחר מכן, לחץ כדי לראות את תוכן ואת תחזיות מזג האוויר.

כדי לשנות את המפה: לחץ על הכפתורים הירוקים עם הפלוס השחור כדי להתקרב; על הכפתור הירוק עם המקף כדי להתרחק; או בחיצים הירוקים למפות סמוכות.


METAR-TAF: